Terminal Aerodrome Forecast
Issued by NWS

Home | Current Version | Previous Version | Text Only | Print | Product List | Glossary On
Versions: 1 2 3 4 5 6 7 8 9 10 11 12 13 14 15 16 17 18
763
FTUS45 KTFX 251734
TAFHVR
TAF
KHVR 251734Z 2518/2618 09013KT P6SM BKN025 OVC050 PROB30 2610/2613
      4SM -SHRA OVC025
     FM261300 10007KT P6SM BKN045 PROB30 2613/2618 4SM -SHRASN
      OVC025=

USA.gov is the U.S. government's official web portal to all federal, state and local government web resources and services.